Time;durP1;ratioP1;P1;durP2;ratioP2;P2;SDS_P1;SDS_P2;PMS_P1;PMS_P2;Temp;Humidity;BMP_temperature;BMP_pressure;BME280_temperature;BME280_humidity;BME280_pressure;Samples;Min_cycle;Max_cycle;Signal;HPM_P1;HPM_P2
2022/05/26 00:01:50;;;;;;;4.88;0.70;;;;;;;19.80;47.66;100290.44;5006835;28;20049;-84
2022/05/26 00:04:17;;;;;;;1.95;0.85;;;;;;;19.80;47.62;100295.84;5003565;28;20244;-84
2022/05/26 00:06:44;;;;;;;0.70;0.70;;;;;;;19.80;47.47;100285.06;4989744;28;20482;-83
2022/05/26 00:09:10;;;;;;;4.30;0.90;;;;;;;19.81;47.34;100282.16;4976292;28;20122;-83
2022/05/26 00:11:38;;;;;;;2.30;1.00;;;;;;;19.85;46.93;100280.78;5001279;28;20052;-85
2022/05/26 00:14:07;;;;;;;3.55;0.70;;;;;;;19.89;46.64;100287.47;5001819;28;20104;-84
2022/05/26 00:16:40;;;;;;;1.60;1.10;;;;;;;19.91;46.27;100288.13;4982649;28;20072;-79
2022/05/26 00:19:07;;;;;;;;;;;;;;;19.93;45.99;100285.25;4986977;28;20050;-79
2022/05/26 00:21:34;;;;;;;1.20;0.70;;;;;;;19.98;45.92;100285.53;5008096;28;19931;-79
2022/05/26 00:24:01;;;;;;;2.25;0.70;;;;;;;19.99;45.83;100283.66;5009928;28;20508;-79
2022/05/26 00:26:28;;;;;;;1.35;0.80;;;;;;;20.00;45.60;100282.63;5012678;28;20554;-79
2022/05/26 00:28:55;;;;;;;2.38;0.80;;;;;;;20.00;45.60;100288.88;5005498;28;20833;-82
2022/05/26 00:31:22;;;;;;;1.90;0.77;;;;;;;20.00;45.68;100288.00;5004732;28;20049;-82
2022/05/26 00:33:48;;;;;;;3.88;1.05;;;;;;;20.00;45.64;100298.78;4987708;28;20045;-81
2022/05/26 00:36:17;;;;;;;1.73;0.85;;;;;;;20.01;45.82;100303.19;4984283;28;20091;-81
2022/05/26 00:38:44;;;;;;;2.20;0.80;;;;;;;20.01;45.77;100295.09;4999499;28;20052;-81
2022/05/26 00:41:16;;;;;;;2.92;0.85;;;;;;;20.01;45.95;100304.00;5004173;28;20050;-81
2022/05/26 00:43:44;;;;;;;1.55;0.70;;;;;;;20.04;45.88;100297.41;4973592;28;20374;-81
2022/05/26 00:46:26;;;;;;;1.83;0.68;;;;;;;20.00;46.03;100294.25;4996768;28;20493;-84
2022/05/26 00:48:56;;;;;;;1.20;0.80;;;;;;;20.02;46.20;100297.59;4996791;28;20065;-80
2022/05/26 00:51:27;;;;;;;0.85;0.70;;;;;;;20.02;45.87;100299.44;4999104;28;20045;-80
2022/05/26 00:54:00;;;;;;;2.15;1.02;;;;;;;20.01;45.94;100285.16;5012002;28;20042;-80
2022/05/26 00:56:32;;;;;;;;;;;;;;;19.99;46.34;100303.34;4981087;28;20058;-80
2022/05/26 00:59:11;;;;;;;1.48;0.70;;;;;;;20.04;46.08;100294.72;4998734;28;19927;-80
2022/05/26 01:01:38;;;;;;;1.35;0.95;;;;;;;20.08;46.01;100296.03;4983534;28;20042;-82
2022/05/26 01:04:12;;;;;;;4.60;1.25;;;;;;;20.05;46.28;100297.25;4996210;28;20042;-82
2022/05/26 01:06:49;;;;;;;1.80;0.77;;;;;;;20.02;46.00;100302.97;4985895;28;20038;-81
2022/05/26 01:09:16;;;;;;;0.98;0.70;;;;;;;20.07;46.05;100310.50;4969508;28;20413;-79
2022/05/26 01:11:44;;;;;;;2.70;0.80;;;;;;;20.02;46.18;100302.97;5004913;28;20402;-81
2022/05/26 01:14:15;;;;;;;2.38;1.00;;;;;;;20.02;45.88;100296.75;4986114;28;20053;-81
2022/05/26 01:17:19;;;;;;;2.25;0.80;;;;;;;19.99;46.01;100307.91;5006054;28;20049;-84
2022/05/26 01:19:52;;;;;;;3.60;0.80;;;;;;;20.00;46.12;100302.34;4964303;28;20412;-84
2022/05/26 01:22:25;;;;;;;3.60;0.80;;;;;;;20.00;46.20;100302.34;5001354;28;20054;-84
2022/05/26 01:24:54;;;;;;;1.92;1.02;;;;;;;20.02;45.98;100308.38;4992423;28;20049;-83
2022/05/26 01:27:27;;;;;;;1.40;0.80;;;;;;;19.99;46.02;100297.97;5020218;28;20049;-80
2022/05/26 01:30:09;;;;;;;;;;;;;;;19.95;46.61;100305.59;5002202;28;20081;-80
2022/05/26 01:32:48;;;;;;;2.28;0.90;;;;;;;20.02;46.11;100302.16;4983275;28;20266;-84
2022/05/26 01:35:50;;;;;;;2.78;1.20;;;;;;;19.99;46.08;100302.53;4997999;28;20045;-84
2022/05/26 01:38:27;;;;;;;1.27;0.77;;;;;;;20.00;46.01;100306.88;4977103;28;20042;-84
2022/05/26 01:41:24;;;;;;;3.15;1.00;;;;;;;20.00;46.30;100307.75;4984092;28;20049;-84
2022/05/26 01:44:07;;;;;;;1.23;0.68;;;;;;;19.99;46.24;100305.22;4965251;28;20452;-84
2022/05/26 01:46:41;;;;;;;2.08;1.00;;;;;;;19.98;46.25;100307.09;4964232;28;20545;-80
2022/05/26 01:49:22;;;;;;;0.80;0.80;;;;;;;19.99;46.57;100306.06;4973826;28;20042;-79
2022/05/26 01:52:02;;;;;;;3.35;0.95;;;;;;;19.99;46.38;100300.66;4962124;28;20093;-79
2022/05/26 01:54:35;;;;;;;2.70;0.70;;;;;;;19.98;46.22;100308.94;4946345;28;20046;-79
2022/05/26 01:57:19;;;;;;;2.67;0.90;;;;;;;19.98;46.53;100303.56;5005498;28;20045;-80
2022/05/26 01:59:52;;;;;;;1.98;0.90;;;;;;;19.98;46.39;100306.25;4979369;28;20104;-79
2022/05/26 02:02:23;;;;;;;1.63;1.10;;;;;;;19.97;46.54;100301.88;4986098;28;20046;-79
2022/05/26 02:04:53;;;;;;;1.77;0.90;;;;;;;19.95;46.41;100307.47;4998168;28;20379;-79
2022/05/26 02:07:34;;;;;;;2.28;0.70;;;;;;;19.94;46.59;100308.47;5000802;28;20042;-79
2022/05/26 02:10:05;;;;;;;2.08;1.00;;;;;;;19.93;46.48;100304.94;5002058;28;20046;-79
2022/05/26 02:12:40;;;;;;;3.22;1.20;;;;;;;19.90;46.62;100310.72;5021195;28;20404;-79
2022/05/26 02:15:11;;;;;;;2.88;0.88;;;;;;;19.92;46.56;100307.81;4981213;28;21147;-84
2022/05/26 02:17:46;;;;;;;4.75;1.15;;;;;;;19.90;47.10;100305.31;5007836;28;20042;-83
2022/05/26 02:20:28;;;;;;;4.97;1.00;;;;;;;19.90;46.84;100313.41;5036877;28;20037;-84
2022/05/26 02:22:55;;;;;;;1.30;0.73;;;;;;;19.92;46.72;100310.50;4974095;28;20058;-84
2022/05/26 02:25:24;;;;;;;2.38;0.95;;;;;;;19.88;46.83;100310.06;5014705;28;20124;-84
2022/05/26 02:27:53;;;;;;;1.08;0.80;;;;;;;19.89;46.69;100303.63;5025595;28;20049;-84
2022/05/26 02:30:22;;;;;;;1.50;0.80;;;;;;;19.87;46.98;100308.38;5026489;28;20049;-84
2022/05/26 02:32:50;;;;;;;1.98;0.90;;;;;;;19.87;47.12;100316.47;5022298;28;20432;-82
2022/05/26 02:35:22;;;;;;;2.20;0.80;;;;;;;19.85;47.09;100307.72;5009330;28;20046;-84
2022/05/26 02:37:52;;;;;;;2.25;0.95;;;;;;;19.83;47.17;100307.06;5001114;28;20092;-84
2022/05/26 02:40:19;;;;;;;2.10;1.50;;;;;;;19.82;47.10;100305.41;5002308;28;20401;-83
2022/05/26 02:42:52;;;;;;;1.95;0.90;;;;;;;19.80;47.31;100310.13;5013589;28;20092;-80
2022/05/26 02:45:56;;;;;;;1.08;0.80;;;;;;;19.78;47.26;100311.34;4976868;28;20045;-80
2022/05/26 02:48:25;;;;;;;3.03;1.00;;;;;;;19.77;47.09;100312.34;4956472;28;20057;-79
2022/05/26 02:51:01;;;;;;;1.25;1.13;;;;;;;19.74;47.46;100313.56;5015177;28;20084;-79
2022/05/26 02:53:40;;;;;;;2.13;0.80;;;;;;;19.71;47.95;100313.94;5002659;28;20050;-79
2022/05/26 02:56:26;;;;;;;3.03;0.80;;;;;;;19.69;47.41;100313.25;4988573;28;20053;-79
2022/05/26 02:59:03;;;;;;;0.93;0.77;;;;;;;19.68;47.45;100317.81;4981796;28;20050;-79
2022/05/26 03:01:35;;;;;;;1.20;0.68;;;;;;;19.65;47.76;100312.78;4988484;28;20100;-79
2022/05/26 03:04:28;;;;;;;3.70;1.08;;;;;;;19.59;48.01;100308.13;4999795;28;20631;-80
2022/05/26 03:07:00;;;;;;;1.00;0.85;;;;;;;19.62;48.03;100315.84;4950695;28;20042;-79
2022/05/26 03:09:27;;;;;;;1.20;0.90;;;;;;;19.60;48.07;100309.78;4986816;28;20050;-79
2022/05/26 03:11:57;;;;;;;4.03;0.90;;;;;;;19.59;48.25;100312.66;4982123;28;20037;-81
2022/05/26 03:14:25;;;;;;;1.42;0.80;;;;;;;19.55;48.24;100317.59;5017620;28;20049;-81
2022/05/26 03:17:20;;;;;;;2.85;1.08;;;;;;;19.49;48.30;100316.47;4982217;28;20053;-82
2022/05/26 03:19:48;;;;;;;4.43;0.90;;;;;;;19.51;48.17;100314.44;4962699;28;20116;-81
2022/05/26 03:22:15;;;;;;;1.85;0.88;;;;;;;19.47;48.39;100318.50;4973012;28;20457;-80
2022/05/26 03:24:42;;;;;;;1.00;0.70;;;;;;;19.44;48.25;100318.03;5004386;28;20052;-80
2022/05/26 03:27:09;;;;;;;2.42;0.90;;;;;;;19.38;48.33;100311.50;5000837;28;20041;-80
2022/05/26 03:29:35;;;;;;;1.17;0.80;;;;;;;19.33;48.39;100319.28;5004534;28;20061;-80
2022/05/26 03:32:03;;;;;;;3.53;0.80;;;;;;;19.28;48.30;100319.84;5018994;28;20137;-80
2022/05/26 03:41:01;;;;;;;3.38;1.00;;;;;;;19.06;48.65;100326.06;4980561;28;20037;-84
2022/05/26 03:43:32;;;;;;;2.15;0.80;;;;;;;19.03;48.69;100337.16;4998148;28;20053;-80
2022/05/26 03:46:00;;;;;;;2.58;0.90;;;;;;;18.99;48.93;100325.94;5007486;28;20128;-84
2022/05/26 03:48:27;;;;;;;1.50;0.95;;;;;;;18.97;48.66;100336.03;5004135;28;20045;-84
2022/05/26 03:50:54;;;;;;;1.73;1.00;;;;;;;18.94;49.04;100339.09;4998660;28;20041;-83
2022/05/26 03:53:21;;;;;;;2.95;0.80;;;;;;;18.91;49.18;100335.94;5002804;28;20056;-84
2022/05/26 03:55:48;;;;;;;1.58;0.80;;;;;;;18.90;49.26;100336.94;4992430;28;20550;-84
2022/05/26 03:58:14;;;;;;;2.45;0.80;;;;;;;18.86;49.16;100331.91;5007841;28;20137;-84
2022/05/26 04:00:42;;;;;;;3.40;0.95;;;;;;;18.92;49.49;100333.03;5016130;28;20042;-84
2022/05/26 04:03:08;;;;;;;1.17;0.70;;;;;;;19.16;49.84;100339.25;5009190;28;20049;-84
2022/05/26 04:05:35;;;;;;;3.38;0.60;;;;;;;19.46;49.34;100337.53;4993665;28;20049;-84
2022/05/26 04:08:02;;;;;;;3.42;0.80;;;;;;;19.74;49.04;100337.81;5004260;28;20658;-83
2022/05/26 04:10:29;;;;;;;0.73;0.73;;;;;;;20.03;48.14;100341.59;5012030;28;20061;-84
2022/05/26 04:12:56;;;;;;;1.55;1.10;;;;;;;20.26;47.95;100342.31;4994497;28;20163;-83
2022/05/26 04:15:23;;;;;;;2.05;1.00;;;;;;;20.34;47.22;100346.78;4991187;28;20052;-83
2022/05/26 04:17:50;;;;;;;1.58;0.85;;;;;;;20.31;46.80;100348.00;5015806;28;20097;-84
2022/05/26 04:20:19;;;;;;;1.40;0.90;;;;;;;20.22;46.57;100350.97;4989129;28;20094;-82
2022/05/26 04:22:46;;;;;;;2.78;0.98;;;;;;;20.10;46.83;100358.69;4984561;28;20497;-84
2022/05/26 04:25:13;;;;;;;1.73;0.85;;;;;;;20.05;47.11;100351.16;5003783;28;20046;-84
2022/05/26 04:27:40;;;;;;;2.72;0.80;;;;;;;20.02;47.65;100356.88;5016485;28;20045;-84
2022/05/26 04:30:09;;;;;;;1.38;0.70;;;;;;;20.09;47.49;100357.84;4997826;28;20057;-84
2022/05/26 04:32:36;;;;;;;1.20;0.90;;;;;;;20.13;47.20;100364.53;4983507;28;20124;-79
2022/05/26 04:35:03;;;;;;;3.42;1.10;;;;;;;20.07;47.25;100354.47;5005846;28;20073;-83
2022/05/26 04:37:30;;;;;;;3.22;0.90;;;;;;;20.02;47.09;100356.06;4997780;28;20575;-84
2022/05/26 04:39:58;;;;;;;1.30;0.80;;;;;;;19.94;47.57;100357.81;5010768;28;20053;-84
2022/05/26 04:42:26;;;;;;;1.77;0.80;;;;;;;19.89;47.75;100354.84;4999000;28;20060;-84
2022/05/26 04:44:53;;;;;;;2.05;0.90;;;;;;;19.82;47.78;100361.13;4993961;28;20053;-84
2022/05/26 04:47:20;;;;;;;2.08;0.85;;;;;;;19.80;47.75;100363.22;5001489;28;20056;-84
2022/05/26 04:49:47;;;;;;;1.00;0.90;;;;;;;19.72;47.77;100362.25;5017152;28;20044;-84
2022/05/26 04:52:17;;;;;;;1.10;0.75;;;;;;;19.66;47.63;100367.50;5006755;28;20124;-84
2022/05/26 04:54:45;;;;;;;1.63;0.80;;;;;;;19.67;47.64;100370.06;4997259;28;20045;-84
2022/05/26 04:57:13;;;;;;;0.55;0.55;;;;;;;19.69;47.82;100372.53;5001762;28;20111;-81
2022/05/26 04:59:40;;;;;;;2.30;0.80;;;;;;;19.67;47.87;100370.06;4972502;28;20057;-82
2022/05/26 05:02:16;;;;;;;1.13;0.93;;;;;;;19.64;48.29;100369.53;4995327;28;20096;-82
2022/05/26 05:04:44;;;;;;;2.00;0.90;;;;;;;19.68;47.63;100378.97;4989561;28;20060;-81
2022/05/26 05:07:11;;;;;;;2.03;0.90;;;;;;;19.69;47.55;100378.78;5010990;28;20432;-82
2022/05/26 05:09:39;;;;;;;1.05;0.68;;;;;;;19.70;47.60;100387.72;4997716;28;20402;-82
2022/05/26 05:12:07;;;;;;;5.10;1.23;;;;;;;19.70;47.46;100393.09;4979295;28;20363;-82
2022/05/26 05:14:39;;;;;;;1.92;0.80;;;;;;;19.71;47.33;100398.28;4989883;28;20756;-81
2022/05/26 05:17:05;;;;;;;0.98;0.85;;;;;;;19.71;48.14;100406.38;4991749;28;20042;-79
2022/05/26 05:19:32;;;;;;;3.70;0.90;;;;;;;19.71;48.24;100408.22;4993900;28;20058;-79
2022/05/26 05:22:02;;;;;;;0.70;0.70;;;;;;;19.71;48.16;100409.06;5015532;28;20042;-79
2022/05/26 05:24:41;;;;;;;1.15;0.80;;;;;;;19.72;47.65;100405.38;4980554;28;20061;-84
2022/05/26 05:27:15;;;;;;;1.08;0.70;;;;;;;19.73;47.40;100416.97;4962024;28;20124;-84
2022/05/26 05:29:43;;;;;;;1.10;0.80;;;;;;;19.77;47.18;100415.63;4978008;28;20413;-84
2022/05/26 05:32:35;;;;;;;1.15;0.93;;;;;;;19.82;47.22;100415.91;4970984;28;20046;-83
2022/05/26 05:35:10;;;;;;;1.40;0.60;;;;;;;19.81;47.37;100424.16;4919461;28;20037;-85
2022/05/26 05:37:37;;;;;;;2.88;0.90;;;;;;;19.85;47.44;100428.19;4982121;28;20472;-83
2022/05/26 05:40:05;;;;;;;4.00;1.00;;;;;;;19.89;47.21;100430.31;5016817;28;20057;-82
2022/05/26 05:42:31;;;;;;;2.35;0.75;;;;;;;19.90;47.42;100429.31;5030352;28;20046;-80
2022/05/26 05:44:58;;;;;;;1.73;0.75;;;;;;;19.91;47.12;100438.22;5011592;28;20038;-80
2022/05/26 05:47:25;;;;;;;0.57;0.55;;;;;;;19.92;47.02;100446.13;5029496;28;20045;-79
2022/05/26 05:49:52;;;;;;;5.38;1.08;;;;;;;19.91;47.02;100446.31;5012084;28;20045;-79
2022/05/26 05:52:22;;;;;;;2.90;0.93;;;;;;;19.92;47.08;100442.56;5010914;28;20478;-79
2022/05/26 05:54:49;;;;;;;1.05;0.60;;;;;;;19.95;46.97;100443.06;4992573;28;20049;-79
2022/05/26 05:57:16;;;;;;;2.08;0.90;;;;;;;19.97;47.37;100444.72;5014024;28;20053;-79
2022/05/26 05:59:43;;;;;;;1.67;0.80;;;;;;;20.00;47.22;100447.06;5009716;28;20388;-79
2022/05/26 06:02:09;;;;;;;1.38;0.98;;;;;;;19.98;47.06;100449.13;4999133;28;20041;-79
2022/05/26 06:04:57;;;;;;;3.05;0.90;;;;;;;19.98;46.96;100446.44;4948385;28;20038;-79
2022/05/26 06:07:26;;;;;;;1.85;0.80;;;;;;;20.00;46.96;100447.06;4994464;28;20046;-79
2022/05/26 06:09:53;;;;;;;2.20;0.75;;;;;;;19.96;47.23;100454.69;4967254;28;20057;-79
2022/05/26 06:12:21;;;;;;;1.00;0.70;;;;;;;20.01;47.08;100452.28;4954504;28;20482;-79
2022/05/26 06:14:49;;;;;;;1.80;0.90;;;;;;;20.07;46.89;100456.94;4999134;28;20048;-82
2022/05/26 06:17:16;;;;;;;2.97;0.75;;;;;;;20.07;46.86;100459.63;5010974;28;20040;-79
2022/05/26 06:19:44;;;;;;;1.83;1.20;;;;;;;20.11;47.03;100468.22;5002062;28;20335;-82
2022/05/26 06:22:19;;;;;;;3.90;0.90;;;;;;;20.12;46.91;100464.47;4976176;28;20454;-84
2022/05/26 06:24:47;;;;;;;2.10;0.73;;;;;;;20.21;46.84;100470.66;4946756;28;20428;-83
2022/05/26 06:30:03;;;;;;;1.42;0.95;;;;;;;20.23;47.19;100471.31;4977334;28;20092;-79
2022/05/26 06:38:03;;;;;;;1.20;0.90;;;;;;;20.36;47.17;100485.81;4994814;28;20430;-83
2022/05/26 06:40:31;;;;;;;1.10;0.73;;;;;;;20.43;47.01;100490.47;4973652;28;20405;-84
2022/05/26 06:43:00;;;;;;;2.17;0.90;;;;;;;20.47;46.64;100495.31;5004332;28;20065;-78
2022/05/26 06:45:27;;;;;;;3.78;0.90;;;;;;;20.44;46.10;100494.88;5011602;28;20061;-79
2022/05/26 06:47:54;;;;;;;3.17;0.80;;;;;;;20.43;46.60;100493.19;5008789;28;20047;-79
2022/05/26 06:50:21;;;;;;;2.20;0.90;;;;;;;20.36;46.67;100488.53;4983235;28;20096;-79
2022/05/26 06:52:47;;;;;;;4.00;1.08;;;;;;;20.34;46.70;100495.13;4989201;28;20502;-80
2022/05/26 06:55:14;;;;;;;2.88;0.88;;;;;;;20.38;46.90;100499.16;5003983;28;20046;-84
2022/05/26 06:57:41;;;;;;;1.60;0.80;;;;;;;20.35;46.74;100503.03;4992136;28;20049;-83
2022/05/26 07:00:08;;;;;;;2.00;0.85;;;;;;;20.38;46.74;100502.66;4985863;28;20097;-80
2022/05/26 07:02:35;;;;;;;1.35;0.70;;;;;;;20.45;47.01;100504.63;5012690;28;20108;-79
2022/05/26 07:05:02;;;;;;;3.90;1.10;;;;;;;20.37;46.56;100508.25;5014047;28;20084;-79
2022/05/26 07:07:29;;;;;;;3.38;0.70;;;;;;;20.34;46.97;100509.44;5017171;28;20058;-79
2022/05/26 07:09:56;;;;;;;1.88;0.80;;;;;;;20.33;46.78;100506.94;4997535;28;20046;-79
2022/05/26 07:12:23;;;;;;;1.40;0.73;;;;;;;20.33;46.98;100521.25;4984306;28;20648;-82
2022/05/26 07:14:51;;;;;;;1.50;0.98;;;;;;;20.39;46.61;100520.53;5014926;28;20532;-81
2022/05/26 07:17:18;;;;;;;2.05;1.02;;;;;;;20.43;46.83;100521.00;5001997;28;20053;-82
2022/05/26 07:19:45;;;;;;;3.17;1.02;;;;;;;20.43;47.00;100530.94;4998034;28;20037;-82
2022/05/26 07:22:13;;;;;;;2.88;1.20;;;;;;;20.44;47.04;100530.78;4979423;28;20065;-81
2022/05/26 07:24:41;;;;;;;1.60;1.17;;;;;;;20.38;46.66;100537.75;4965565;28;20053;-81
2022/05/26 07:27:08;;;;;;;1.77;0.82;;;;;;;20.31;46.61;100533.25;4958664;28;20038;-81
2022/05/26 07:29:36;;;;;;;2.45;0.95;;;;;;;20.33;46.91;100542.00;5010220;28;20429;-81
2022/05/26 07:32:04;;;;;;;3.33;1.10;;;;;;;20.33;47.00;100542.84;5007597;28;20050;-79
2022/05/26 07:34:31;;;;;;;1.83;1.00;;;;;;;20.36;47.04;100536.25;4990861;28;20726;-79
2022/05/26 07:42:32;;;;;;;2.05;0.90;;;;;;;20.29;47.25;100546.09;4977741;28;20139;-80
2022/05/26 07:44:59;;;;;;;1.38;1.00;;;;;;;20.30;47.41;100550.44;4981421;28;20053;-77
2022/05/26 07:47:27;;;;;;;2.78;1.00;;;;;;;20.29;47.36;100549.59;4986249;28;20057;-77
2022/05/26 07:49:55;;;;;;;2.70;0.77;;;;;;;20.32;47.42;100540.31;4999861;28;20107;-83
2022/05/26 07:52:22;;;;;;;2.60;0.95;;;;;;;20.36;47.25;100542.47;5001986;28;20123;-81
2022/05/26 07:54:49;;;;;;;2.80;0.80;;;;;;;20.41;47.28;100546.50;4997258;28;20045;-81
2022/05/26 07:57:26;;;;;;;5.30;1.40;;;;;;;20.34;47.54;100557.16;4967918;28;20054;-79
2022/05/26 07:59:54;;;;;;;2.13;0.80;;;;;;;20.41;47.37;100546.50;4987103;28;20117;-78
2022/05/26 08:02:22;;;;;;;3.50;1.20;;;;;;;20.38;47.47;100550.41;5005238;28;20413;-80
2022/05/26 08:04:49;;;;;;;2.55;0.80;;;;;;;20.45;47.39;100548.63;4986366;28;20034;-77
2022/05/26 08:07:17;;;;;;;1.30;1.08;;;;;;;20.57;47.51;100551.75;5009114;28;20409;-81
2022/05/26 08:09:44;;;;;;;4.85;1.10;;;;;;;20.50;47.79;100551.59;5005260;28;20048;-80
2022/05/26 08:12:12;;;;;;;2.95;0.98;;;;;;;20.54;47.71;100557.50;4995982;28;20050;-81
2022/05/26 08:14:41;;;;;;;2.85;0.80;;;;;;;20.57;47.19;100557.97;4984500;28;20052;-82
2022/05/26 08:17:10;;;;;;;4.03;1.35;;;;;;;20.60;47.52;100563.00;5008607;28;20058;-81
2022/05/26 08:19:38;;;;;;;3.08;0.90;;;;;;;20.63;47.59;100566.38;4961178;28;20409;-80
2022/05/26 08:22:04;;;;;;;1.08;0.98;;;;;;;20.55;47.74;100567.28;4981263;28;20392;-81
2022/05/26 08:24:31;;;;;;;4.35;1.17;;;;;;;20.57;47.34;100563.38;4981952;28;20049;-80
2022/05/26 08:26:58;;;;;;;1.15;0.95;;;;;;;20.60;47.79;100571.09;4993362;28;20088;-80
2022/05/26 08:29:25;;;;;;;4.03;1.27;;;;;;;20.66;47.62;100566.84;5009992;28;20506;-87
2022/05/26 08:31:52;;;;;;;1.25;0.80;;;;;;;20.65;47.61;100565.16;5013053;28;20041;-87
2022/05/26 08:34:20;;;;;;;1.65;0.95;;;;;;;20.63;47.84;100574.47;5007339;28;20056;-88
2022/05/26 08:36:47;;;;;;;4.15;1.40;;;;;;;20.66;47.97;100566.00;5006449;28;20564;-87
2022/05/26 08:39:15;;;;;;;2.95;1.15;;;;;;;20.60;47.98;100573.81;5011199;28;20052;-86
2022/05/26 08:41:46;;;;;;;2.30;1.05;;;;;;;20.64;48.16;100566.19;5013890;28;20057;-85
2022/05/26 08:44:22;;;;;;;2.63;1.20;;;;;;;20.71;47.74;100574.38;5004420;28;20040;-86
2022/05/26 08:47:01;;;;;;;3.85;1.20;;;;;;;20.69;47.41;100566.47;5000094;28;20454;-88
2022/05/26 08:49:45;;;;;;;4.13;1.40;;;;;;;20.69;47.60;100574.56;4953580;28;20132;-93
2022/05/26 08:52:15;;;;;;;3.20;0.73;;;;;;;20.69;47.61;100562.94;4922081;28;20124;-77
2022/05/26 08:54:58;;;;;;;3.67;0.90;;;;;;;20.59;47.42;100574.84;4971009;28;20451;-77
2022/05/26 08:57:29;;;;;;;2.30;1.08;;;;;;;20.75;47.28;100578.41;4980295;28;20076;-78
2022/05/26 08:59:56;;;;;;;1.80;1.10;;;;;;;20.68;47.27;100570.19;4992629;28;20057;-77
2022/05/26 09:02:31;;;;;;;1.40;1.02;;;;;;;20.64;47.84;100581.56;4984768;28;20563;-81
2022/05/26 09:05:05;;;;;;;2.60;1.30;;;;;;;20.71;47.74;100586.03;4989120;28;20093;-81
2022/05/26 09:13:21;;;;;;;4.07;1.02;;;;;;;20.68;47.52;100593.63;4939503;28;20050;-81
2022/05/26 09:15:48;;;;;;;4.57;1.50;;;;;;;20.64;47.30;100592.34;5010942;28;20046;-78
2022/05/26 09:18:18;;;;;;;0.80;0.80;;;;;;;20.63;47.49;100591.50;4982173;28;20489;-77
2022/05/26 09:20:47;;;;;;;2.92;1.13;;;;;;;20.64;47.40;100595.03;4965058;28;20041;-78
2022/05/26 09:23:15;;;;;;;4.22;1.10;;;;;;;20.60;47.78;100589.16;4978857;28;20052;-78
2022/05/26 09:25:44;;;;;;;2.08;0.90;;;;;;;20.69;47.48;100590.78;4991773;28;20049;-77
2022/05/26 09:28:11;;;;;;;2.67;1.08;;;;;;;20.64;47.60;100590.47;5009473;28;20056;-77
2022/05/26 09:30:38;;;;;;;1.83;1.00;;;;;;;20.69;47.73;100589.94;4981811;28;20080;-77
2022/05/26 09:33:29;;;;;;;1.23;1.05;;;;;;;20.65;47.81;100605.63;5012776;28;20682;-83
2022/05/26 09:36:15;;;;;;;1.60;1.00;;;;;;;20.75;47.72;100602.69;4960163;28;20054;-85
2022/05/26 09:38:43;;;;;;;4.03;1.13;;;;;;;20.87;47.28;100600.41;4936878;28;20057;-83
2022/05/26 09:41:14;;;;;;;1.33;1.10;;;;;;;20.74;47.45;100601.84;4987042;28;20820;-84
2022/05/26 09:43:49;;;;;;;3.55;1.00;;;;;;;20.71;47.65;100598.66;4997702;28;20586;-85
2022/05/26 09:46:16;;;;;;;1.40;1.00;;;;;;;20.75;47.54;100600.81;4983987;28;20052;-84
2022/05/26 09:48:45;;;;;;;2.20;0.70;;;;;;;20.80;47.46;100602.97;5017186;28;20115;-84
2022/05/26 09:51:21;;;;;;;2.45;0.80;;;;;;;20.79;47.88;100604.00;4983768;28;20054;-80
2022/05/26 09:53:51;;;;;;;4.72;1.10;;;;;;;20.94;47.69;100612.97;5015971;28;20056;-80
2022/05/26 09:56:40;;;;;;;4.00;1.30;;;;;;;20.93;47.50;100599.63;4992942;28;20120;-79
2022/05/26 09:59:40;;;;;;;3.00;1.35;;;;;;;20.84;48.13;100612.41;4968506;28;20042;-79
2022/05/26 10:02:42;;;;;;;2.80;1.10;;;;;;;20.76;47.76;100605.22;4922803;28;20089;-83
2022/05/26 10:05:19;;;;;;;2.15;1.10;;;;;;;20.75;47.57;100602.69;4970080;28;20565;-82
2022/05/26 10:08:07;;;;;;;3.03;1.27;;;;;;;20.77;47.61;100606.06;4985562;28;20398;-78
2022/05/26 10:10:53;;;;;;;3.42;1.10;;;;;;;20.80;47.65;100616.47;4972356;28;20044;-77
2022/05/26 10:14:00;;;;;;;2.42;1.10;;;;;;;20.63;47.94;100618.47;4989994;28;20088;-77
2022/05/26 10:16:43;;;;;;;5.45;1.23;;;;;;;20.57;48.49;100616.50;4931933;28;20073;-78
2022/05/26 10:19:19;;;;;;;3.60;1.20;;;;;;;20.57;48.38;100617.34;4979180;28;20068;-77
2022/05/26 10:21:50;;;;;;;1.20;1.00;;;;;;;20.63;48.03;100615.78;4988814;28;20398;-77
2022/05/26 10:24:24;;;;;;;3.15;1.55;;;;;;;20.58;48.21;100619.03;5011402;28;20075;-77
2022/05/26 10:27:03;;;;;;;3.95;1.40;;;;;;;20.69;48.07;100620.47;4980497;28;20052;-76
2022/05/26 10:29:59;;;;;;;3.63;1.10;;;;;;;20.65;48.17;100621.00;4992029;28;20046;-85
2022/05/26 10:32:26;;;;;;;1.70;1.23;;;;;;;20.74;47.82;100628.00;5000089;28;20049;-86
2022/05/26 10:35:30;;;;;;;3.08;1.15;;;;;;;20.63;48.38;100615.78;5009802;28;20038;-85
2022/05/26 10:38:22;;;;;;;1.83;1.05;;;;;;;20.53;48.62;100626.81;4880450;28;20189;-86
2022/05/26 10:40:55;;;;;;;4.10;1.20;;;;;;;20.53;48.96;100621.41;4935790;28;20419;-87
2022/05/26 10:43:26;;;;;;;3.25;1.27;;;;;;;20.51;48.40;100617.22;4973706;28;20093;-86
2022/05/26 10:45:53;;;;;;;1.48;0.80;;;;;;;20.57;48.49;100616.50;4962935;28;20046;-85
2022/05/26 10:48:30;;;;;;;3.55;1.30;;;;;;;20.64;48.76;100614.78;4966604;28;20108;-85
2022/05/26 10:51:06;;;;;;;2.47;1.25;;;;;;;20.73;48.89;100618.22;4963486;28;20174;-77
2022/05/26 10:53:36;;;;;;;1.95;1.00;;;;;;;20.70;48.58;100618.59;4926642;28;20426;-76
2022/05/26 10:56:13;;;;;;;2.83;1.10;;;;;;;20.76;48.74;100607.91;4955697;28;20092;-75
2022/05/26 10:58:43;;;;;;;1.63;1.15;;;;;;;20.83;48.42;100618.78;4907779;28;20439;-79
2022/05/26 11:01:34;;;;;;;1.63;1.50;;;;;;;20.96;48.23;100613.63;4959566;28;20046;-77
2022/05/26 11:04:09;;;;;;;4.75;1.50;;;;;;;20.84;48.32;100617.78;4904056;28;20779;-80
2022/05/26 11:06:38;;;;;;;1.90;1.20;;;;;;;20.82;48.54;100617.13;4953611;28;20550;-80
2022/05/26 11:09:17;;;;;;;1.55;1.13;;;;;;;20.68;48.60;100621.47;4973819;28;20103;-80
2022/05/26 11:11:51;;;;;;;3.53;1.15;;;;;;;20.72;48.58;100605.75;4966147;28;20041;-77
2022/05/26 11:17:23;;;;;;;5.65;1.58;;;;;;;20.74;48.64;100622.63;4974319;28;20073;-77
2022/05/26 11:20:01;;;;;;;1.15;0.90;;;;;;;20.72;48.42;100622.78;4967774;28;20055;-81
2022/05/26 11:22:30;;;;;;;3.55;1.00;;;;;;;20.74;48.51;100631.53;4985881;28;20070;-77
2022/05/26 11:24:58;;;;;;;1.90;1.08;;;;;;;20.80;48.47;100614.59;4944899;28;20047;-82
2022/05/26 11:27:49;;;;;;;2.35;0.93;;;;;;;20.75;49.38;100614.31;4982862;28;20771;-84
2022/05/26 11:36:49;;;;;;;4.00;0.95;;;;;;;20.87;48.71;100616.59;4968204;28;20048;-85
2022/05/26 11:39:36;;;;;;;2.80;1.10;;;;;;;20.92;49.06;100609.59;4991477;28;20049;-82
2022/05/26 11:42:08;;;;;;;1.50;0.90;;;;;;;20.96;48.73;100610.94;4960347;28;20490;-82
2022/05/26 11:44:39;;;;;;;3.22;1.00;;;;;;;21.00;48.38;100601.41;4987439;28;20049;-82
2022/05/26 11:47:31;;;;;;;1.77;1.05;;;;;;;20.95;48.49;100606.53;4988916;28;20053;-82
2022/05/26 11:49:58;;;;;;;2.30;1.30;;;;;;;21.10;48.50;100606.56;4959197;28;20065;-81
2022/05/26 11:52:40;;;;;;;1.40;1.20;;;;;;;21.02;49.04;100607.47;5017676;28;20184;-81
2022/05/26 11:55:16;;;;;;;1.17;0.95;;;;;;;21.02;48.28;100596.69;4989463;28;20065;-77
2022/05/26 11:57:44;;;;;;;2.15;1.10;;;;;;;21.08;48.04;100605.06;4977927;28;20091;-77
2022/05/26 12:00:35;;;;;;;3.13;1.42;;;;;;;21.05;48.05;100606.25;4998842;28;20045;-77
2022/05/26 12:03:21;;;;;;;2.55;1.30;;;;;;;21.11;48.36;100604.69;4939986;28;20052;-82
2022/05/26 12:06:10;;;;;;;1.60;1.23;;;;;;;21.22;48.16;100609.63;4981806;28;20562;-82
2022/05/26 12:08:42;;;;;;;2.60;1.30;;;;;;;21.30;48.05;100614.94;4972675;28;20042;-82
2022/05/26 12:11:10;;;;;;;1.60;1.07;;;;;;;21.34;47.82;100610.81;5003753;28;20497;-87
2022/05/26 12:13:41;;;;;;;1.88;0.90;;;;;;;21.37;47.22;100604.19;4985677;28;20444;-87
2022/05/26 12:16:09;;;;;;;2.47;1.10;;;;;;;21.45;47.17;100604.16;4982071;28;20069;-85
2022/05/26 12:18:39;;;;;;;4.85;1.17;;;;;;;21.45;47.03;100594.19;4972655;28;20045;-88
2022/05/26 12:21:15;;;;;;;2.15;1.60;;;;;;;21.46;46.55;100606.66;4987289;28;20092;-87
2022/05/26 12:23:42;;;;;;;2.00;1.17;;;;;;;21.44;47.52;100599.75;4952586;28;20110;-86
2022/05/26 12:26:28;;;;;;;1.77;1.00;;;;;;;21.38;47.23;100598.66;5002180;28;20041;-82